Pierce, Texas
Current Conditions -  °F | °C
As of 9:15 AM on Saturday 22 Nov 2014 (Local Time) from KARM Reporting Station
Light Rain Light Rain  
Wind Chill: 65°   Ceiling: 10000
Heat Index: 65°   Visibility: 10mi
Dew Point: 63°   Wind: 9mph
Humidity: 94%   Direction: 100°E
Pressure: 30.03"   Gusts: NA
Location:  29.24°N, 96.2°W
Report Text: KARM 221515Z AUTO 10008KT 10SM -RA OVC100 18/17 A3003 RMK AO2 LTG DSNT N T01810171
Loading
Personal Weather Stations






























Interactive Weather Map New forecast layout! Learn more

10-Day Weather Forecast

Advertisements
Track Severe Weather on mobile